sensor_id;sensor_type;location;lat;lon;timestamp;P1;durP1;ratioP1;P2;durP2;ratioP2
72065;SDS011;59939;52.516;13.420;2023-03-01T00:00:40;16.17;;;6.70;;
72065;SDS011;59939;52.516;13.420;2023-03-01T00:03:58;18.50;;;7.07;;
72065;SDS011;59939;52.516;13.420;2023-03-01T00:07:03;17.03;;;6.63;;
72065;SDS011;59939;52.516;13.420;2023-03-01T00:10:07;18.77;;;6.90;;
72065;SDS011;59939;52.516;13.420;2023-03-01T00:13:11;17.77;;;6.43;;
72065;SDS011;59939;52.516;13.420;2023-03-01T00:16:16;16.77;;;6.97;;
72065;SDS011;59939;52.516;13.420;2023-03-01T00:19:20;16.60;;;6.83;;
72065;SDS011;59939;52.516;13.420;2023-03-01T00:25:55;17.13;;;7.07;;
72065;SDS011;59939;52.516;13.420;2023-03-01T00:28:59;18.90;;;7.17;;
72065;SDS011;59939;52.516;13.420;2023-03-01T00:32:04;17.77;;;6.90;;
72065;SDS011;59939;52.516;13.420;2023-03-01T00:35:09;16.17;;;6.00;;
72065;SDS011;59939;52.516;13.420;2023-03-01T00:38:13;16.93;;;6.57;;
72065;SDS011;59939;52.516;13.420;2023-03-01T00:41:17;17.37;;;7.27;;
72065;SDS011;59939;52.516;13.420;2023-03-01T00:44:29;16.17;;;6.13;;
72065;SDS011;59939;52.516;13.420;2023-03-01T00:47:32;21.80;;;7.60;;
72065;SDS011;59939;52.516;13.420;2023-03-01T00:50:39;17.47;;;7.30;;
72065;SDS011;59939;52.516;13.420;2023-03-01T00:53:43;22.03;;;9.10;;
72065;SDS011;59939;52.516;13.420;2023-03-01T00:56:47;22.47;;;9.63;;
72065;SDS011;59939;52.516;13.420;2023-03-01T00:59:51;25.50;;;10.60;;
72065;SDS011;59939;52.516;13.420;2023-03-01T01:02:57;22.30;;;10.27;;
72065;SDS011;59939;52.516;13.420;2023-03-01T01:06:18;25.10;;;11.40;;
72065;SDS011;59939;52.516;13.420;2023-03-01T01:09:22;23.67;;;10.77;;
72065;SDS011;59939;52.516;13.420;2023-03-01T01:12:40;18.07;;;8.47;;
72065;SDS011;59939;52.516;13.420;2023-03-01T01:15:44;25.90;;;8.50;;
72065;SDS011;59939;52.516;13.420;2023-03-01T01:18:48;22.30;;;8.40;;
72065;SDS011;59939;52.516;13.420;2023-03-01T01:21:55;21.97;;;8.83;;
72065;SDS011;59939;52.516;13.420;2023-03-01T01:25:01;23.70;;;9.10;;
72065;SDS011;59939;52.516;13.420;2023-03-01T01:28:05;20.60;;;9.63;;
72065;SDS011;59939;52.516;13.420;2023-03-01T01:31:23;21.93;;;10.03;;
72065;SDS011;59939;52.516;13.420;2023-03-01T01:34:34;19.57;;;8.70;;
72065;SDS011;59939;52.516;13.420;2023-03-01T01:37:39;23.03;;;9.87;;
72065;SDS011;59939;52.516;13.420;2023-03-01T01:40:46;22.10;;;9.83;;
72065;SDS011;59939;52.516;13.420;2023-03-01T01:44:09;21.43;;;9.97;;
72065;SDS011;59939;52.516;13.420;2023-03-01T01:47:14;20.57;;;9.23;;
72065;SDS011;59939;52.516;13.420;2023-03-01T01:50:23;23.80;;;10.80;;
72065;SDS011;59939;52.516;13.420;2023-03-01T01:53:31;23.03;;;11.30;;
72065;SDS011;59939;52.516;13.420;2023-03-01T01:56:37;22.53;;;11.20;;
72065;SDS011;59939;52.516;13.420;2023-03-01T01:59:43;22.20;;;10.47;;
72065;SDS011;59939;52.516;13.420;2023-03-01T02:02:49;22.10;;;10.07;;
72065;SDS011;59939;52.516;13.420;2023-03-01T02:09:27;22.90;;;9.80;;
72065;SDS011;59939;52.516;13.420;2023-03-01T02:12:31;24.80;;;11.10;;
72065;SDS011;59939;52.516;13.420;2023-03-01T02:15:45;21.47;;;9.80;;
72065;SDS011;59939;52.516;13.420;2023-03-01T02:18:50;22.63;;;10.10;;
72065;SDS011;59939;52.516;13.420;2023-03-01T02:21:59;24.63;;;10.50;;
72065;SDS011;59939;52.516;13.420;2023-03-01T02:31:29;25.37;;;10.93;;
72065;SDS011;59939;52.516;13.420;2023-03-01T02:34:53;21.43;;;9.60;;
72065;SDS011;59939;52.516;13.420;2023-03-01T02:37:58;19.07;;;8.87;;
72065;SDS011;59939;52.516;13.420;2023-03-01T02:41:05;27.50;;;11.23;;
72065;SDS011;59939;52.516;13.420;2023-03-01T02:44:10;22.57;;;10.03;;
72065;SDS011;59939;52.516;13.420;2023-03-01T02:47:28;21.73;;;9.43;;
72065;SDS011;59939;52.516;13.420;2023-03-01T02:50:41;21.33;;;8.67;;
72065;SDS011;59939;52.516;13.420;2023-03-01T02:57:12;20.63;;;8.67;;
72065;SDS011;59939;52.516;13.420;2023-03-01T03:00:24;21.57;;;8.60;;
72065;SDS011;59939;52.516;13.420;2023-03-01T03:03:30;18.33;;;7.47;;
72065;SDS011;59939;52.516;13.420;2023-03-01T03:06:35;21.93;;;8.63;;
72065;SDS011;59939;52.516;13.420;2023-03-01T03:09:48;22.70;;;8.73;;
72065;SDS011;59939;52.516;13.420;2023-03-01T03:12:53;23.03;;;8.30;;
72065;SDS011;59939;52.516;13.420;2023-03-01T03:15:57;18.60;;;8.43;;
72065;SDS011;59939;52.516;13.420;2023-03-01T03:19:02;19.43;;;8.60;;
72065;SDS011;59939;52.516;13.420;2023-03-01T03:22:08;23.93;;;9.47;;
72065;SDS011;59939;52.516;13.420;2023-03-01T03:25:12;21.80;;;8.80;;
72065;SDS011;59939;52.516;13.420;2023-03-01T03:28:26;23.00;;;10.33;;
72065;SDS011;59939;52.516;13.420;2023-03-01T03:31:30;19.70;;;8.60;;
72065;SDS011;59939;52.516;13.420;2023-03-01T03:34:33;22.63;;;9.43;;
72065;SDS011;59939;52.516;13.420;2023-03-01T03:37:40;21.87;;;9.37;;
72065;SDS011;59939;52.516;13.420;2023-03-01T03:41:04;29.57;;;9.60;;
72065;SDS011;59939;52.516;13.420;2023-03-01T03:44:08;23.77;;;11.53;;
72065;SDS011;59939;52.516;13.420;2023-03-01T03:47:12;25.07;;;9.60;;
72065;SDS011;59939;52.516;13.420;2023-03-01T03:50:18;24.23;;;10.07;;
72065;SDS011;59939;52.516;13.420;2023-03-01T03:53:23;23.97;;;10.80;;
72065;SDS011;59939;52.516;13.420;2023-03-01T03:56:28;25.73;;;11.07;;
72065;SDS011;59939;52.516;13.420;2023-03-01T03:59:33;28.03;;;11.57;;
72065;SDS011;59939;52.516;13.420;2023-03-01T04:02:36;30.17;;;12.00;;
72065;SDS011;59939;52.516;13.420;2023-03-01T04:05:41;31.73;;;13.00;;
72065;SDS011;59939;52.516;13.420;2023-03-01T04:08:45;24.60;;;12.10;;
72065;SDS011;59939;52.516;13.420;2023-03-01T04:11:56;26.17;;;12.60;;
72065;SDS011;59939;52.516;13.420;2023-03-01T04:15:00;32.13;;;13.23;;
72065;SDS011;59939;52.516;13.420;2023-03-01T04:18:04;30.97;;;13.50;;
72065;SDS011;59939;52.516;13.420;2023-03-01T04:21:10;29.03;;;13.97;;
72065;SDS011;59939;52.516;13.420;2023-03-01T04:24:15;29.57;;;12.70;;
72065;SDS011;59939;52.516;13.420;2023-03-01T04:27:19;29.93;;;13.17;;
72065;SDS011;59939;52.516;13.420;2023-03-01T04:30:23;27.70;;;13.03;;
72065;SDS011;59939;52.516;13.420;2023-03-01T04:33:31;28.90;;;13.33;;
72065;SDS011;59939;52.516;13.420;2023-03-01T04:36:37;29.10;;;13.10;;
72065;SDS011;59939;52.516;13.420;2023-03-01T04:39:42;27.10;;;12.43;;
72065;SDS011;59939;52.516;13.420;2023-03-01T04:42:51;28.73;;;12.87;;
72065;SDS011;59939;52.516;13.420;2023-03-01T04:45:59;27.73;;;12.37;;
72065;SDS011;59939;52.516;13.420;2023-03-01T04:49:08;32.23;;;13.47;;
72065;SDS011;59939;52.516;13.420;2023-03-01T04:52:11;28.43;;;13.43;;
72065;SDS011;59939;52.516;13.420;2023-03-01T04:55:26;27.73;;;13.70;;
72065;SDS011;59939;52.516;13.420;2023-03-01T04:58:30;27.50;;;12.67;;
72065;SDS011;59939;52.516;13.420;2023-03-01T05:01:35;27.83;;;12.37;;
72065;SDS011;59939;52.516;13.420;2023-03-01T05:04:40;29.00;;;12.07;;
72065;SDS011;59939;52.516;13.420;2023-03-01T05:07:44;34.20;;;13.53;;
72065;SDS011;59939;52.516;13.420;2023-03-01T05:10:49;33.20;;;13.37;;
72065;SDS011;59939;52.516;13.420;2023-03-01T05:13:56;25.47;;;11.90;;
72065;SDS011;59939;52.516;13.420;2023-03-01T05:17:02;29.27;;;13.30;;
72065;SDS011;59939;52.516;13.420;2023-03-01T05:20:08;28.90;;;13.57;;
72065;SDS011;59939;52.516;13.420;2023-03-01T05:23:16;28.13;;;14.77;;
72065;SDS011;59939;52.516;13.420;2023-03-01T05:26:20;31.80;;;13.67;;
72065;SDS011;59939;52.516;13.420;2023-03-01T05:29:32;30.57;;;13.83;;
72065;SDS011;59939;52.516;13.420;2023-03-01T05:32:48;32.77;;;14.27;;
72065;SDS011;59939;52.516;13.420;2023-03-01T05:35:53;28.97;;;13.37;;
72065;SDS011;59939;52.516;13.420;2023-03-01T05:38:57;33.07;;;14.70;;
72065;SDS011;59939;52.516;13.420;2023-03-01T05:42:01;32.93;;;14.73;;
72065;SDS011;59939;52.516;13.420;2023-03-01T05:45:12;33.17;;;14.80;;
72065;SDS011;59939;52.516;13.420;2023-03-01T05:48:16;32.33;;;15.50;;
72065;SDS011;59939;52.516;13.420;2023-03-01T05:54:51;33.70;;;15.53;;
72065;SDS011;59939;52.516;13.420;2023-03-01T05:58:06;30.97;;;15.33;;
72065;SDS011;59939;52.516;13.420;2023-03-01T06:01:11;30.63;;;15.10;;
72065;SDS011;59939;52.516;13.420;2023-03-01T06:04:19;29.93;;;14.53;;
72065;SDS011;59939;52.516;13.420;2023-03-01T06:07:27;33.60;;;15.27;;
72065;SDS011;59939;52.516;13.420;2023-03-01T06:10:31;34.93;;;15.77;;
72065;SDS011;59939;52.516;13.420;2023-03-01T06:13:34;35.10;;;15.87;;
72065;SDS011;59939;52.516;13.420;2023-03-01T06:16:38;32.83;;;16.30;;
72065;SDS011;59939;52.516;13.420;2023-03-01T06:19:42;30.93;;;14.97;;
72065;SDS011;59939;52.516;13.420;2023-03-01T06:22:48;34.13;;;16.67;;
72065;SDS011;59939;52.516;13.420;2023-03-01T06:25:52;35.93;;;16.27;;
72065;SDS011;59939;52.516;13.420;2023-03-01T06:28:58;39.67;;;18.27;;
72065;SDS011;59939;52.516;13.420;2023-03-01T06:32:04;41.80;;;19.10;;
72065;SDS011;59939;52.516;13.420;2023-03-01T06:35:09;36.53;;;17.37;;
72065;SDS011;59939;52.516;13.420;2023-03-01T06:38:14;36.83;;;16.57;;
72065;SDS011;59939;52.516;13.420;2023-03-01T06:41:18;33.77;;;15.10;;
72065;SDS011;59939;52.516;13.420;2023-03-01T06:44:24;40.07;;;16.40;;
72065;SDS011;59939;52.516;13.420;2023-03-01T06:47:36;32.70;;;16.80;;
72065;SDS011;59939;52.516;13.420;2023-03-01T06:50:40;35.40;;;16.10;;
72065;SDS011;59939;52.516;13.420;2023-03-01T06:53:48;31.33;;;15.77;;
72065;SDS011;59939;52.516;13.420;2023-03-01T06:56:52;34.40;;;16.87;;
72065;SDS011;59939;52.516;13.420;2023-03-01T06:59:56;33.33;;;16.70;;
72065;SDS011;59939;52.516;13.420;2023-03-01T07:03:00;34.47;;;18.33;;
72065;SDS011;59939;52.516;13.420;2023-03-01T07:06:07;32.20;;;16.27;;
72065;SDS011;59939;52.516;13.420;2023-03-01T07:09:12;33.73;;;17.10;;
72065;SDS011;59939;52.516;13.420;2023-03-01T07:12:16;36.20;;;18.20;;
72065;SDS011;59939;52.516;13.420;2023-03-01T07:15:19;34.77;;;17.60;;
72065;SDS011;59939;52.516;13.420;2023-03-01T07:18:23;35.47;;;16.57;;
72065;SDS011;59939;52.516;13.420;2023-03-01T07:21:27;39.93;;;18.33;;
72065;SDS011;59939;52.516;13.420;2023-03-01T07:24:38;33.33;;;17.80;;
72065;SDS011;59939;52.516;13.420;2023-03-01T07:27:42;32.97;;;18.63;;
72065;SDS011;59939;52.516;13.420;2023-03-01T07:31:01;33.73;;;18.03;;
72065;SDS011;59939;52.516;13.420;2023-03-01T07:34:05;28.77;;;16.57;;
72065;SDS011;59939;52.516;13.420;2023-03-01T07:37:08;31.37;;;15.80;;
72065;SDS011;59939;52.516;13.420;2023-03-01T07:40:15;27.40;;;14.03;;
72065;SDS011;59939;52.516;13.420;2023-03-01T07:43:20;31.53;;;15.30;;
72065;SDS011;59939;52.516;13.420;2023-03-01T07:46:26;32.10;;;15.10;;
72065;SDS011;59939;52.516;13.420;2023-03-01T07:49:31;28.57;;;13.67;;
72065;SDS011;59939;52.516;13.420;2023-03-01T07:52:35;34.43;;;16.30;;
72065;SDS011;59939;52.516;13.420;2023-03-01T07:55:38;33.70;;;16.57;;
72065;SDS011;59939;52.516;13.420;2023-03-01T07:58:42;32.40;;;15.70;;
72065;SDS011;59939;52.516;13.420;2023-03-01T08:01:47;34.50;;;17.33;;
72065;SDS011;59939;52.516;13.420;2023-03-01T08:04:51;32.63;;;17.60;;
72065;SDS011;59939;52.516;13.420;2023-03-01T08:07:55;32.57;;;16.07;;
72065;SDS011;59939;52.516;13.420;2023-03-01T08:11:00;34.33;;;16.13;;
72065;SDS011;59939;52.516;13.420;2023-03-01T08:14:11;30.93;;;14.80;;
72065;SDS011;59939;52.516;13.420;2023-03-01T08:17:16;27.63;;;15.43;;
72065;SDS011;59939;52.516;13.420;2023-03-01T08:20:19;29.87;;;14.47;;
72065;SDS011;59939;52.516;13.420;2023-03-01T08:23:24;29.10;;;14.70;;
72065;SDS011;59939;52.516;13.420;2023-03-01T08:26:29;25.90;;;14.43;;
72065;SDS011;59939;52.516;13.420;2023-03-01T08:29:34;28.57;;;14.07;;
72065;SDS011;59939;52.516;13.420;2023-03-01T08:32:39;24.50;;;11.73;;
72065;SDS011;59939;52.516;13.420;2023-03-01T08:35:50;20.67;;;9.50;;
72065;SDS011;59939;52.516;13.420;2023-03-01T08:38:57;20.50;;;10.50;;
72065;SDS011;59939;52.516;13.420;2023-03-01T08:42:01;20.80;;;9.20;;
72065;SDS011;59939;52.516;13.420;2023-03-01T08:45:05;20.95;;;9.45;;
72065;SDS011;59939;52.516;13.420;2023-03-01T08:48:09;22.02;;;8.85;;
72065;SDS011;59939;52.516;13.420;2023-03-01T08:51:18;21.27;;;8.40;;
72065;SDS011;59939;52.516;13.420;2023-03-01T08:54:23;20.80;;;9.10;;
72065;SDS011;59939;52.516;13.420;2023-03-01T08:57:27;23.63;;;8.63;;
72065;SDS011;59939;52.516;13.420;2023-03-01T09:00:30;17.80;;;8.05;;
72065;SDS011;59939;52.516;13.420;2023-03-01T09:03:34;20.67;;;8.02;;
72065;SDS011;59939;52.516;13.420;2023-03-01T09:06:38;22.15;;;9.25;;
72065;SDS011;59939;52.516;13.420;2023-03-01T09:09:42;22.38;;;7.93;;
72065;SDS011;59939;52.516;13.420;2023-03-01T09:12:45;18.92;;;8.27;;
72065;SDS011;59939;52.516;13.420;2023-03-01T09:15:52;18.70;;;7.97;;
72065;SDS011;59939;52.516;13.420;2023-03-01T09:18:56;17.95;;;7.13;;
72065;SDS011;59939;52.516;13.420;2023-03-01T09:22:00;15.30;;;6.90;;
72065;SDS011;59939;52.516;13.420;2023-03-01T09:25:04;17.08;;;5.57;;
72065;SDS011;59939;52.516;13.420;2023-03-01T09:28:08;13.85;;;5.32;;
72065;SDS011;59939;52.516;13.420;2023-03-01T09:31:32;15.52;;;6.03;;
72065;SDS011;59939;52.516;13.420;2023-03-01T09:34:36;14.35;;;6.07;;
72065;SDS011;59939;52.516;13.420;2023-03-01T09:38:00;14.90;;;5.30;;
72065;SDS011;59939;52.516;13.420;2023-03-01T09:41:19;15.77;;;5.60;;
72065;SDS011;59939;52.516;13.420;2023-03-01T09:44:28;14.70;;;5.97;;
72065;SDS011;59939;52.516;13.420;2023-03-01T09:47:36;14.88;;;5.07;;
72065;SDS011;59939;52.516;13.420;2023-03-01T09:50:40;13.68;;;5.72;;
72065;SDS011;59939;52.516;13.420;2023-03-01T09:53:45;14.10;;;5.57;;
72065;SDS011;59939;52.516;13.420;2023-03-01T10:03:39;15.15;;;6.13;;
72065;SDS011;59939;52.516;13.420;2023-03-01T10:06:50;15.07;;;5.68;;
72065;SDS011;59939;52.516;13.420;2023-03-01T10:09:55;13.65;;;5.95;;
72065;SDS011;59939;52.516;13.420;2023-03-01T10:13:08;13.50;;;4.70;;
72065;SDS011;59939;52.516;13.420;2023-03-01T10:16:16;13.27;;;4.55;;
72065;SDS011;59939;52.516;13.420;2023-03-01T10:19:25;17.98;;;6.35;;
72065;SDS011;59939;52.516;13.420;2023-03-01T10:22:31;15.15;;;5.15;;
72065;SDS011;59939;52.516;13.420;2023-03-01T10:25:40;13.57;;;4.88;;
72065;SDS011;59939;52.516;13.420;2023-03-01T10:31:56;13.82;;;4.35;;
72065;SDS011;59939;52.516;13.420;2023-03-01T10:35:00;12.82;;;4.80;;
72065;SDS011;59939;52.516;13.420;2023-03-01T10:38:06;14.73;;;5.00;;
72065;SDS011;59939;52.516;13.420;2023-03-01T10:41:10;12.98;;;4.45;;
72065;SDS011;59939;52.516;13.420;2023-03-01T10:44:35;12.07;;;4.72;;
72065;SDS011;59939;52.516;13.420;2023-03-01T10:47:41;15.60;;;5.13;;
72065;SDS011;59939;52.516;13.420;2023-03-01T10:50:50;10.50;;;3.78;;
72065;SDS011;59939;52.516;13.420;2023-03-01T10:53:55;11.93;;;3.88;;
72065;SDS011;59939;52.516;13.420;2023-03-01T10:56:59;11.63;;;3.72;;
72065;SDS011;59939;52.516;13.420;2023-03-01T11:00:18;12.43;;;3.67;;
72065;SDS011;59939;52.516;13.420;2023-03-01T11:03:24;9.95;;;3.47;;
72065;SDS011;59939;52.516;13.420;2023-03-01T11:06:28;12.32;;;4.25;;
72065;SDS011;59939;52.516;13.420;2023-03-01T11:09:33;11.70;;;3.90;;
72065;SDS011;59939;52.516;13.420;2023-03-01T11:12:41;13.23;;;3.78;;
72065;SDS011;59939;52.516;13.420;2023-03-01T11:19:37;9.77;;;4.15;;
72065;SDS011;59939;52.516;13.420;2023-03-01T11:22:44;13.43;;;4.28;;
72065;SDS011;59939;52.516;13.420;2023-03-01T11:25:54;12.95;;;3.78;;
72065;SDS011;59939;52.516;13.420;2023-03-01T11:29:00;9.85;;;3.03;;
72065;SDS011;59939;52.516;13.420;2023-03-01T11:32:08;9.32;;;3.17;;
72065;SDS011;59939;52.516;13.420;2023-03-01T11:35:27;9.68;;;3.38;;
72065;SDS011;59939;52.516;13.420;2023-03-01T11:38:33;11.10;;;3.65;;
72065;SDS011;59939;52.516;13.420;2023-03-01T11:41:42;10.20;;;4.00;;
72065;SDS011;59939;52.516;13.420;2023-03-01T11:44:48;8.80;;;3.17;;
72065;SDS011;59939;52.516;13.420;2023-03-01T11:51:04;8.63;;;3.05;;
72065;SDS011;59939;52.516;13.420;2023-03-01T12:14:25;12.18;;;4.00;;
72065;SDS011;59939;52.516;13.420;2023-03-01T12:17:46;9.23;;;3.45;;
72065;SDS011;59939;52.516;13.420;2023-03-01T12:21:12;8.75;;;3.08;;
72065;SDS011;59939;52.516;13.420;2023-03-01T12:24:28;10.98;;;3.40;;
72065;SDS011;59939;52.516;13.420;2023-03-01T12:27:49;8.75;;;3.08;;
72065;SDS011;59939;52.516;13.420;2023-03-01T12:37:50;9.90;;;3.20;;
72065;SDS011;59939;52.516;13.420;2023-03-01T12:41:21;8.45;;;2.72;;
72065;SDS011;59939;52.516;13.420;2023-03-01T12:51:01;8.68;;;2.90;;
72065;SDS011;59939;52.516;13.420;2023-03-01T12:54:10;11.02;;;3.28;;
72065;SDS011;59939;52.516;13.420;2023-03-01T13:00:44;7.90;;;2.80;;
72065;SDS011;59939;52.516;13.420;2023-03-01T13:07:25;10.23;;;3.30;;
72065;SDS011;59939;52.516;13.420;2023-03-01T13:10:33;9.52;;;2.67;;
72065;SDS011;59939;52.516;13.420;2023-03-01T13:13:38;9.15;;;3.22;;
72065;SDS011;59939;52.516;13.420;2023-03-01T13:16:42;8.32;;;3.00;;
72065;SDS011;59939;52.516;13.420;2023-03-01T13:20:00;12.43;;;3.53;;
72065;SDS011;59939;52.516;13.420;2023-03-01T13:26:20;8.55;;;3.17;;
72065;SDS011;59939;52.516;13.420;2023-03-01T13:29:26;9.95;;;3.63;;
72065;SDS011;59939;52.516;13.420;2023-03-01T13:32:33;8.75;;;3.05;;
72065;SDS011;59939;52.516;13.420;2023-03-01T13:35:47;8.95;;;3.08;;
72065;SDS011;59939;52.516;13.420;2023-03-01T13:42:02;9.63;;;3.10;;
72065;SDS011;59939;52.516;13.420;2023-03-01T13:45:14;8.85;;;2.90;;
72065;SDS011;59939;52.516;13.420;2023-03-01T13:48:23;10.45;;;2.83;;
72065;SDS011;59939;52.516;13.420;2023-03-01T13:51:32;9.45;;;3.03;;
72065;SDS011;59939;52.516;13.420;2023-03-01T13:54:35;8.45;;;2.88;;
72065;SDS011;59939;52.516;13.420;2023-03-01T13:57:43;9.98;;;3.40;;
72065;SDS011;59939;52.516;13.420;2023-03-01T14:04:22;10.95;;;3.47;;
72065;SDS011;59939;52.516;13.420;2023-03-01T14:07:27;8.48;;;2.90;;
72065;SDS011;59939;52.516;13.420;2023-03-01T14:17:39;7.38;;;2.78;;
72065;SDS011;59939;52.516;13.420;2023-03-01T14:20:47;7.38;;;3.00;;
72065;SDS011;59939;52.516;13.420;2023-03-01T14:23:56;9.60;;;2.92;;
72065;SDS011;59939;52.516;13.420;2023-03-01T14:27:02;9.77;;;3.28;;
72065;SDS011;59939;52.516;13.420;2023-03-01T14:33:30;8.55;;;3.45;;
72065;SDS011;59939;52.516;13.420;2023-03-01T14:36:34;9.65;;;3.15;;
72065;SDS011;59939;52.516;13.420;2023-03-01T14:39:38;8.68;;;3.30;;
72065;SDS011;59939;52.516;13.420;2023-03-01T14:42:42;8.13;;;3.17;;
72065;SDS011;59939;52.516;13.420;2023-03-01T14:45:49;9.25;;;3.00;;
72065;SDS011;59939;52.516;13.420;2023-03-01T14:48:56;9.00;;;3.15;;
72065;SDS011;59939;52.516;13.420;2023-03-01T14:52:29;8.02;;;2.90;;
72065;SDS011;59939;52.516;13.420;2023-03-01T14:55:35;8.85;;;2.90;;
72065;SDS011;59939;52.516;13.420;2023-03-01T14:59:01;8.32;;;2.80;;
72065;SDS011;59939;52.516;13.420;2023-03-01T15:02:08;7.72;;;2.72;;
72065;SDS011;59939;52.516;13.420;2023-03-01T15:05:27;9.88;;;3.05;;
72065;SDS011;59939;52.516;13.420;2023-03-01T15:08:32;9.98;;;3.22;;
72065;SDS011;59939;52.516;13.420;2023-03-01T15:11:37;9.13;;;3.35;;
72065;SDS011;59939;52.516;13.420;2023-03-01T15:14:44;7.40;;;2.78;;
72065;SDS011;59939;52.516;13.420;2023-03-01T15:18:06;9.50;;;2.90;;
72065;SDS011;59939;52.516;13.420;2023-03-01T15:21:19;9.40;;;3.63;;
72065;SDS011;59939;52.516;13.420;2023-03-01T15:24:24;9.02;;;3.15;;
72065;SDS011;59939;52.516;13.420;2023-03-01T15:27:29;13.50;;;3.17;;
72065;SDS011;59939;52.516;13.420;2023-03-01T15:30:36;10.45;;;3.30;;
72065;SDS011;59939;52.516;13.420;2023-03-01T15:33:41;10.63;;;3.50;;
72065;SDS011;59939;52.516;13.420;2023-03-01T15:36:58;9.00;;;3.45;;
72065;SDS011;59939;52.516;13.420;2023-03-01T15:40:17;10.93;;;3.40;;
72065;SDS011;59939;52.516;13.420;2023-03-01T15:46:47;8.18;;;3.00;;
72065;SDS011;59939;52.516;13.420;2023-03-01T15:49:55;8.38;;;2.80;;
72065;SDS011;59939;52.516;13.420;2023-03-01T15:53:00;7.70;;;2.80;;
72065;SDS011;59939;52.516;13.420;2023-03-01T15:56:04;11.50;;;3.17;;
72065;SDS011;59939;52.516;13.420;2023-03-01T15:59:18;10.52;;;3.15;;
72065;SDS011;59939;52.516;13.420;2023-03-01T16:02:22;14.00;;;3.42;;
72065;SDS011;59939;52.516;13.420;2023-03-01T16:05:27;10.73;;;3.50;;
72065;SDS011;59939;52.516;13.420;2023-03-01T16:08:31;8.63;;;3.00;;
72065;SDS011;59939;52.516;13.420;2023-03-01T16:11:35;8.88;;;2.92;;
72065;SDS011;59939;52.516;13.420;2023-03-01T16:14:40;8.68;;;3.10;;
72065;SDS011;59939;52.516;13.420;2023-03-01T16:17:44;8.43;;;2.72;;
72065;SDS011;59939;52.516;13.420;2023-03-01T16:20:58;7.93;;;2.92;;
72065;SDS011;59939;52.516;13.420;2023-03-01T16:24:03;10.50;;;3.40;;
72065;SDS011;59939;52.516;13.420;2023-03-01T16:27:07;10.63;;;3.07;;
72065;SDS011;59939;52.516;13.420;2023-03-01T16:30:11;9.43;;;3.37;;
72065;SDS011;59939;52.516;13.420;2023-03-01T16:33:18;9.00;;;2.60;;
72065;SDS011;59939;52.516;13.420;2023-03-01T16:36:27;8.00;;;2.67;;
72065;SDS011;59939;52.516;13.420;2023-03-01T16:39:45;9.90;;;2.70;;
72065;SDS011;59939;52.516;13.420;2023-03-01T16:43:04;9.60;;;3.07;;
72065;SDS011;59939;52.516;13.420;2023-03-01T16:46:11;12.10;;;3.30;;
72065;SDS011;59939;52.516;13.420;2023-03-01T16:49:15;10.67;;;3.20;;
72065;SDS011;59939;52.516;13.420;2023-03-01T16:52:18;12.73;;;3.73;;
72065;SDS011;59939;52.516;13.420;2023-03-01T16:55:24;11.70;;;3.67;;
72065;SDS011;59939;52.516;13.420;2023-03-01T16:58:29;9.13;;;2.93;;
72065;SDS011;59939;52.516;13.420;2023-03-01T17:01:33;9.73;;;3.30;;
72065;SDS011;59939;52.516;13.420;2023-03-01T17:04:39;9.47;;;3.60;;
72065;SDS011;59939;52.516;13.420;2023-03-01T17:07:43;13.30;;;3.63;;
72065;SDS011;59939;52.516;13.420;2023-03-01T17:10:48;11.70;;;3.37;;
72065;SDS011;59939;52.516;13.420;2023-03-01T17:13:56;8.87;;;3.33;;
72065;SDS011;59939;52.516;13.420;2023-03-01T17:17:00;9.27;;;3.17;;
72065;SDS011;59939;52.516;13.420;2023-03-01T17:20:20;10.70;;;3.70;;
72065;SDS011;59939;52.516;13.420;2023-03-01T17:23:24;10.97;;;3.50;;
72065;SDS011;59939;52.516;13.420;2023-03-01T17:26:35;8.87;;;3.40;;
72065;SDS011;59939;52.516;13.420;2023-03-01T17:29:57;11.07;;;3.70;;
72065;SDS011;59939;52.516;13.420;2023-03-01T17:33:03;12.13;;;3.93;;
72065;SDS011;59939;52.516;13.420;2023-03-01T17:36:07;12.13;;;4.33;;
72065;SDS011;59939;52.516;13.420;2023-03-01T17:39:11;14.03;;;4.23;;
72065;SDS011;59939;52.516;13.420;2023-03-01T17:42:16;12.67;;;4.17;;
72065;SDS011;59939;52.516;13.420;2023-03-01T17:45:19;16.23;;;4.50;;
72065;SDS011;59939;52.516;13.420;2023-03-01T17:48:23;15.40;;;4.33;;
72065;SDS011;59939;52.516;13.420;2023-03-01T17:51:28;14.50;;;4.23;;
72065;SDS011;59939;52.516;13.420;2023-03-01T17:54:34;12.53;;;4.00;;
72065;SDS011;59939;52.516;13.420;2023-03-01T17:57:52;15.20;;;4.70;;
72065;SDS011;59939;52.516;13.420;2023-03-01T18:01:11;13.17;;;4.60;;
72065;SDS011;59939;52.516;13.420;2023-03-01T18:04:16;14.63;;;4.37;;
72065;SDS011;59939;52.516;13.420;2023-03-01T18:07:21;14.00;;;4.50;;
72065;SDS011;59939;52.516;13.420;2023-03-01T18:10:24;11.23;;;4.40;;
72065;SDS011;59939;52.516;13.420;2023-03-01T18:13:28;12.03;;;4.53;;
72065;SDS011;59939;52.516;13.420;2023-03-01T18:20:04;15.57;;;5.00;;
72065;SDS011;59939;52.516;13.420;2023-03-01T18:23:09;13.93;;;4.50;;
72065;SDS011;59939;52.516;13.420;2023-03-01T18:26:15;16.63;;;5.57;;
72065;SDS011;59939;52.516;13.420;2023-03-01T18:29:20;16.57;;;5.47;;
72065;SDS011;59939;52.516;13.420;2023-03-01T18:32:26;15.40;;;5.20;;
72065;SDS011;59939;52.516;13.420;2023-03-01T18:35:37;18.90;;;5.70;;
72065;SDS011;59939;52.516;13.420;2023-03-01T18:38:41;13.73;;;4.60;;
72065;SDS011;59939;52.516;13.420;2023-03-01T18:41:45;14.10;;;4.87;;
72065;SDS011;59939;52.516;13.420;2023-03-01T18:44:50;13.07;;;5.03;;
72065;SDS011;59939;52.516;13.420;2023-03-01T18:47:54;19.77;;;5.53;;
72065;SDS011;59939;52.516;13.420;2023-03-01T18:51:07;14.57;;;5.67;;
72065;SDS011;59939;52.516;13.420;2023-03-01T18:54:13;15.97;;;6.33;;
72065;SDS011;59939;52.516;13.420;2023-03-01T18:57:17;20.57;;;6.50;;
72065;SDS011;59939;52.516;13.420;2023-03-01T19:00:21;15.53;;;6.20;;
72065;SDS011;59939;52.516;13.420;2023-03-01T19:03:28;20.00;;;8.57;;
72065;SDS011;59939;52.516;13.420;2023-03-01T19:06:34;17.50;;;6.83;;
72065;SDS011;59939;52.516;13.420;2023-03-01T19:09:39;17.53;;;6.67;;
72065;SDS011;59939;52.516;13.420;2023-03-01T19:12:45;14.20;;;5.93;;
72065;SDS011;59939;52.516;13.420;2023-03-01T19:15:49;16.33;;;5.40;;
72065;SDS011;59939;52.516;13.420;2023-03-01T19:18:57;17.53;;;6.23;;
72065;SDS011;59939;52.516;13.420;2023-03-01T19:22:02;17.23;;;5.67;;
72065;SDS011;59939;52.516;13.420;2023-03-01T19:25:09;15.67;;;5.97;;
72065;SDS011;59939;52.516;13.420;2023-03-01T19:28:12;17.47;;;5.60;;
72065;SDS011;59939;52.516;13.420;2023-03-01T19:31:18;16.93;;;6.20;;
72065;SDS011;59939;52.516;13.420;2023-03-01T19:34:23;16.83;;;4.80;;
72065;SDS011;59939;52.516;13.420;2023-03-01T19:37:28;15.97;;;5.87;;
72065;SDS011;59939;52.516;13.420;2023-03-01T19:40:34;15.10;;;5.70;;
72065;SDS011;59939;52.516;13.420;2023-03-01T19:43:38;15.63;;;5.67;;
72065;SDS011;59939;52.516;13.420;2023-03-01T19:46:42;16.17;;;5.93;;
72065;SDS011;59939;52.516;13.420;2023-03-01T19:49:46;16.60;;;5.03;;
72065;SDS011;59939;52.516;13.420;2023-03-01T19:52:49;15.77;;;5.47;;
72065;SDS011;59939;52.516;13.420;2023-03-01T19:55:57;15.47;;;5.63;;
72065;SDS011;59939;52.516;13.420;2023-03-01T19:59:01;16.30;;;5.23;;